Time;durP1;ratioP1;P1;durP2;ratioP2;P2;SDS_P1;SDS_P2;PMS_P1;PMS_P2;Temp;Humidity;BMP_temperature;BMP_pressure;BME280_temperature;BME280_humidity;BME280_pressure;Samples;Min_cycle;Max_cycle;Signal;HPM_P1;HPM_P2
2022/03/20 00:00:01;;;;;;;29.37;17.87;;;;;;;2.59;100.00;96377.06;5075941;28;20192;-63
2022/03/20 00:02:30;;;;;;;26.80;17.47;;;;;;;2.68;100.00;96380.50;5075940;28;20216;-63
2022/03/20 00:04:56;;;;;;;26.37;16.70;;;;;;;2.65;100.00;96367.66;5093918;28;20226;-63
2022/03/20 00:07:21;;;;;;;26.33;18.03;;;;;;;2.63;100.00;96371.81;5075978;28;20195;-63
2022/03/20 00:09:53;;;;;;;27.20;16.93;;;;;;;2.59;100.00;96371.66;5076125;28;20188;-63
2022/03/20 00:12:18;;;;;;;28.63;17.47;;;;;;;2.57;100.00;96373.91;5075988;28;20200;-63
2022/03/20 00:14:44;;;;;;;25.50;16.93;;;;;;;2.56;100.00;96363.44;5075939;28;20211;-63
2022/03/20 00:17:10;;;;;;;26.57;18.00;;;;;;;2.54;100.00;96363.78;5076214;28;20210;-57
2022/03/20 00:19:35;;;;;;;27.87;17.80;;;;;;;2.49;100.00;96366.69;5076650;28;20176;-58
2022/03/20 00:22:00;;;;;;;26.23;17.47;;;;;;;2.40;100.00;96363.25;5075945;28;20199;-57
2022/03/20 00:24:26;;;;;;;27.17;17.90;;;;;;;2.37;100.00;96368.50;5076371;28;20192;-57
2022/03/20 00:26:57;;;;;;;26.07;17.73;;;;;;;2.34;100.00;96353.75;5076352;28;20709;-56
2022/03/20 00:29:25;;;;;;;26.17;17.13;;;;;;;2.31;100.00;96359.81;5076156;28;20705;-57
2022/03/20 00:31:51;;;;;;;26.30;16.40;;;;;;;2.27;100.00;96358.91;5075809;28;20195;-55
2022/03/20 00:34:16;;;;;;;27.83;17.67;;;;;;;2.25;100.00;96361.13;5075754;28;20211;-62
2022/03/20 00:36:42;;;;;;;28.03;17.30;;;;;;;2.25;100.00;96361.13;5075685;28;20195;-56
2022/03/20 00:39:07;;;;;;;28.27;17.40;;;;;;;2.20;100.00;96364.00;5075665;28;20201;-57
2022/03/20 00:41:32;;;;;;;27.23;17.13;;;;;;;2.18;100.00;96368.91;5075561;28;20188;-58
2022/03/20 00:43:59;;;;;;;29.57;17.83;;;;;;;2.15;100.00;96361.47;5078558;28;20188;-57
2022/03/20 00:46:24;;;;;;;24.37;15.93;;;;;;;2.11;100.00;96371.34;5079046;28;20209;-56
2022/03/20 00:48:50;;;;;;;30.53;17.57;;;;;;;2.07;100.00;96369.59;5078924;28;20225;-57
2022/03/20 00:51:15;;;;;;;28.00;17.87;;;;;;;2.02;100.00;96357.13;5079471;28;20201;-59
2022/03/20 00:53:41;;;;;;;27.97;17.47;;;;;;;1.97;100.00;96370.75;5079029;28;20204;-54
2022/03/20 00:56:07;;;;;;;28.33;17.73;;;;;;;1.91;100.00;96366.69;5079003;28;20188;-53
2022/03/20 00:58:33;;;;;;;26.47;17.20;;;;;;;1.87;100.00;96364.97;5078745;28;20191;-54
2022/03/20 01:00:58;;;;;;;27.67;18.57;;;;;;;1.82;100.00;96362.47;5078880;28;20185;-54
2022/03/20 01:03:23;;;;;;;27.77;17.10;;;;;;;1.76;100.00;96369.94;5078801;28;20207;-53
2022/03/20 01:05:49;;;;;;;26.50;17.17;;;;;;;1.72;100.00;96363.59;5078998;28;20195;-54
2022/03/20 01:08:14;;;;;;;27.80;18.20;;;;;;;1.70;100.00;96370.41;5079416;28;20227;-57
2022/03/20 01:10:41;;;;;;;25.93;17.57;;;;;;;1.68;100.00;96368.03;5079124;28;20257;-55
2022/03/20 01:13:06;;;;;;;30.10;18.17;;;;;;;1.64;100.00;96369.03;5079104;28;20199;-58
2022/03/20 01:15:32;;;;;;;26.00;16.77;;;;;;;1.60;100.00;96370.78;5078794;28;20215;-58
2022/03/20 01:17:58;;;;;;;26.70;17.53;;;;;;;1.57;100.00;96364.13;5078529;28;20191;-58
2022/03/20 01:20:24;;;;;;;28.47;17.83;;;;;;;1.51;100.00;96357.34;5096325;28;20186;-58
2022/03/20 01:22:49;;;;;;;27.43;18.27;;;;;;;1.47;100.00;96358.31;5078597;28;20186;-58
2022/03/20 01:25:15;;;;;;;29.53;17.97;;;;;;;1.44;100.00;96357.06;5078422;28;20180;-58
2022/03/20 01:27:42;;;;;;;27.20;17.47;;;;;;;1.40;100.00;96360.69;5078710;28;20183;-55
2022/03/20 01:30:08;;;;;;;28.33;18.00;;;;;;;1.37;100.00;96354.06;5078581;28;20593;-63
2022/03/20 01:32:34;;;;;;;28.20;18.43;;;;;;;1.32;100.00;96343.47;5078175;28;20191;-63
2022/03/20 01:34:59;;;;;;;26.67;17.27;;;;;;;1.27;100.00;96357.09;5078265;28;20236;-63
2022/03/20 01:37:25;;;;;;;29.10;18.07;;;;;;;1.21;100.00;96361.06;5078319;28;20180;-64
2022/03/20 01:39:52;;;;;;;29.37;18.20;;;;;;;1.17;100.00;96365.47;5078405;28;20186;-63
2022/03/20 01:42:18;;;;;;;29.80;19.43;;;;;;;1.13;100.00;96366.47;5078234;28;20253;-63
2022/03/20 01:44:43;;;;;;;31.23;19.23;;;;;;;1.09;100.00;96371.66;5078284;28;20180;-57
2022/03/20 01:47:08;;;;;;;29.97;19.37;;;;;;;1.05;100.00;96372.66;5096179;28;20191;-58
2022/03/20 01:49:34;;;;;;;29.13;19.33;;;;;;;1.01;100.00;96369.78;5077804;28;20187;-63
2022/03/20 01:52:13;;;;;;;33.93;19.90;;;;;;;0.99;100.00;96366.66;5077995;28;20212;-62
2022/03/20 01:54:44;;;;;;;30.50;19.73;;;;;;;0.94;100.00;96369.47;5095581;28;20196;-62
2022/03/20 01:57:13;;;;;;;33.83;20.40;;;;;;;0.92;100.00;96369.03;5078441;28;20229;-62
2022/03/20 01:59:39;;;;;;;32.57;20.43;;;;;;;0.90;100.00;96363.16;5095821;28;20182;-62
2022/03/20 02:02:05;;;;;;;33.80;20.23;;;;;;;0.87;100.00;96374.53;5077922;28;20212;-62
2022/03/20 02:04:34;;;;;;;33.07;20.03;;;;;;;0.84;100.00;96360.97;5077918;28;20197;-58
2022/03/20 02:07:00;;;;;;;33.40;20.73;;;;;;;0.79;100.00;96361.91;5078232;28;20190;-54
2022/03/20 02:09:26;;;;;;;32.10;20.10;;;;;;;0.75;100.00;96360.16;5077825;28;20254;-54
2022/03/20 02:11:52;;;;;;;30.93;19.53;;;;;;;0.76;100.00;96362.53;5077909;28;20200;-55
2022/03/20 02:14:17;;;;;;;30.60;19.93;;;;;;;0.77;100.00;96363.31;5077538;28;20216;-53
2022/03/20 02:16:43;;;;;;;33.63;19.93;;;;;;;0.74;100.00;96362.06;5077451;28;20224;-54
2022/03/20 02:19:13;;;;;;;33.93;20.00;;;;;;;0.73;100.00;96360.47;5078259;28;20289;-53
2022/03/20 02:21:42;;;;;;;32.10;20.37;;;;;;;0.69;100.00;96364.91;5077854;28;20189;-53
2022/03/20 02:24:36;;;;;;;33.63;20.10;;;;;;;0.67;100.00;96363.63;5077831;28;20281;-59
2022/03/20 02:27:12;;;;;;;30.47;19.47;;;;;;;0.62;100.00;96356.50;5077758;28;20251;-58
2022/03/20 02:29:39;;;;;;;31.40;19.40;;;;;;;0.59;100.00;96357.16;5077478;28;20195;-58
2022/03/20 02:32:06;;;;;;;31.33;20.70;;;;;;;0.56;100.00;96357.78;5077720;28;20196;-58
2022/03/20 02:34:32;;;;;;;36.20;20.87;;;;;;;0.52;100.00;96350.69;5077274;28;20213;-58
2022/03/20 02:36:58;;;;;;;35.90;21.20;;;;;;;0.50;100.00;96351.00;5077868;28;20219;-57
2022/03/20 02:39:24;;;;;;;33.30;20.33;;;;;;;0.47;100.00;96357.00;5077406;28;20189;-58
2022/03/20 02:41:51;;;;;;;34.37;20.77;;;;;;;0.40;100.00;96353.97;5077536;28;20198;-62
2022/03/20 02:44:18;;;;;;;32.93;20.67;;;;;;;0.35;100.00;96351.47;5077255;28;20213;-58
2022/03/20 02:46:43;;;;;;;36.33;21.67;;;;;;;0.29;100.00;96344.66;5077173;28;20213;-58
2022/03/20 02:49:09;;;;;;;34.50;21.17;;;;;;;0.25;100.00;96338.31;5077335;28;20213;-58
2022/03/20 02:51:36;;;;;;;31.10;19.60;;;;;;;0.20;100.00;96349.22;5077176;28;20230;-58
2022/03/20 02:54:06;;;;;;;31.73;20.13;;;;;;;0.18;100.00;96351.41;5077103;28;20208;-58
2022/03/20 02:56:33;;;;;;;32.53;20.70;;;;;;;0.14;100.00;96347.78;5076954;28;20189;-58
2022/03/20 02:58:59;;;;;;;33.73;20.23;;;;;;;0.10;100.00;96344.16;5077467;28;20190;-58
2022/03/20 03:01:25;;;;;;;33.07;20.10;;;;;;;0.06;100.00;96347.78;5077010;28;20233;-58
2022/03/20 03:03:53;;;;;;;32.07;19.30;;;;;;;0.08;100.00;96347.13;5076954;28;20297;-58
2022/03/20 03:06:19;;;;;;;32.93;20.47;;;;;;;0.07;100.00;96350.13;5076547;28;20238;-59
2022/03/20 03:11:28;;;;;;;27.90;18.67;;;;;;;0.03;100.00;96358.03;5095268;28;20195;-58
2022/03/20 03:13:54;;;;;;;31.20;19.73;;;;;;;0.04;100.00;96350.78;5076809;28;20187;-58
2022/03/20 03:16:19;;;;;;;31.47;20.13;;;;;;;0.07;100.00;96363.56;5076730;28;20193;-58
2022/03/20 03:18:46;;;;;;;30.63;19.40;;;;;;;0.08;100.00;96357.88;5076878;28;20249;-61
2022/03/20 03:21:14;;;;;;;32.57;20.10;;;;;;;0.10;100.00;96365.63;5076607;28;20277;-58
2022/03/20 03:23:40;;;;;;;31.23;19.30;;;;;;;0.13;100.00;96367.69;5077133;28;20181;-58
2022/03/20 03:26:06;;;;;;;33.13;18.97;;;;;;;0.14;100.00;96371.94;5076628;28;20250;-58
2022/03/20 03:28:34;;;;;;;32.77;19.07;;;;;;;0.16;100.00;96380.50;5076536;28;20220;-58
2022/03/20 03:31:06;;;;;;;31.63;19.37;;;;;;;0.17;100.00;96386.66;5077320;28;20187;-58
2022/03/20 03:33:31;;;;;;;32.93;19.63;;;;;;;0.19;100.00;96393.28;5076975;28;20206;-58
2022/03/20 03:35:57;;;;;;;29.37;19.43;;;;;;;0.16;100.00;96391.22;5076983;28;20198;-57
2022/03/20 03:38:26;;;;;;;29.33;18.80;;;;;;;0.12;100.00;96398.31;5076525;28;20196;-57
2022/03/20 03:40:51;;;;;;;33.10;19.83;;;;;;;0.10;100.00;96389.78;5076908;28;20278;-56
2022/03/20 03:43:19;;;;;;;29.50;18.27;;;;;;;0.08;100.00;96390.09;5076798;28;20238;-56
2022/03/20 03:45:46;;;;;;;32.50;19.43;;;;;;;0.03;100.00;96386.75;5076309;28;20277;-56
2022/03/20 03:48:12;;;;;;;33.13;20.07;;;;;;;0.00;100.00;96393.53;5076285;28;20212;-56
2022/03/20 03:50:39;;;;;;;32.13;19.93;;;;;;;-0.01;100.00;96402.72;5075872;28;20292;-56
2022/03/20 03:53:05;;;;;;;32.43;19.97;;;;;;;-0.03;100.00;96396.06;5076612;28;20185;-63
2022/03/20 03:55:32;;;;;;;31.40;19.57;;;;;;;-0.09;100.00;96405.34;5076143;28;20227;-52
2022/03/20 03:57:59;;;;;;;34.33;19.73;;;;;;;-0.13;100.00;96401.72;5076204;28;20252;-58
2022/03/20 04:00:26;;;;;;;33.00;19.60;;;;;;;-0.20;100.00;96404.84;5076678;28;20235;-58
2022/03/20 04:02:51;;;;;;;33.23;19.40;;;;;;;-0.19;100.00;96408.31;5076285;28;20209;-58
2022/03/20 04:05:17;;;;;;;29.57;19.40;;;;;;;-0.20;100.00;96407.53;5076100;28;20197;-58
2022/03/20 04:07:49;;;;;;;31.17;19.90;;;;;;;-0.21;100.00;96410.53;5076066;28;20260;-58
2022/03/20 04:10:16;;;;;;;29.87;18.73;;;;;;;-0.21;100.00;96407.84;5075957;28;20189;-58
2022/03/20 04:12:43;;;;;;;34.37;19.93;;;;;;;-0.23;100.00;96401.97;5075748;28;20208;-54
2022/03/20 04:15:09;;;;;;;30.07;18.37;;;;;;;-0.21;100.00;96405.16;5075840;28;20215;-52
2022/03/20 04:17:35;;;;;;;30.27;18.77;;;;;;;-0.24;100.00;96398.53;5080649;28;20182;-54
2022/03/20 04:20:01;;;;;;;29.47;18.73;;;;;;;-0.24;100.00;96414.63;5083077;28;20196;-54
2022/03/20 04:22:28;;;;;;;32.37;20.30;;;;;;;-0.21;100.00;96413.97;5082575;28;20191;-53
2022/03/20 04:24:54;;;;;;;33.00;19.90;;;;;;;-0.19;100.00;96406.44;5083190;28;20177;-54
2022/03/20 04:27:19;;;;;;;31.23;18.90;;;;;;;-0.21;100.00;96413.22;5082547;28;20242;-52
2022/03/20 04:29:45;;;;;;;32.03;18.63;;;;;;;-0.26;100.00;96399.91;5082611;28;20188;-52
2022/03/20 04:32:13;;;;;;;33.37;18.77;;;;;;;-0.28;100.00;96407.50;5082358;28;20547;-57
2022/03/20 04:34:40;;;;;;;31.07;18.93;;;;;;;-0.33;100.00;96404.94;5082883;28;20243;-59
2022/03/20 04:37:07;;;;;;;28.00;17.97;;;;;;;-0.36;100.00;96410.94;5082395;28;20184;-58
2022/03/20 04:39:34;;;;;;;32.93;19.00;;;;;;;-0.42;100.00;96414.84;5082612;28;20189;-58
2022/03/20 04:41:59;;;;;;;32.77;18.90;;;;;;;-0.48;100.00;96411.50;5082251;28;20185;-59
2022/03/20 04:44:25;;;;;;;33.27;19.00;;;;;;;-0.46;100.00;96411.19;5082205;28;20195;-59
2022/03/20 04:46:51;;;;;;;32.10;19.63;;;;;;;-0.46;100.00;96411.19;5082620;28;20190;-58
2022/03/20 05:00:12;;;;;;;29.50;19.03;;;;;;;-0.56;100.00;96424.84;5100334;28;20195;-64
2022/03/20 05:02:37;;;;;;;29.63;18.50;;;;;;;-0.61;100.00;96420.41;5082009;28;20200;-65
2022/03/20 05:05:03;;;;;;;28.73;18.93;;;;;;;-0.61;100.00;96433.03;5082290;28;20196;-64
2022/03/20 05:07:29;;;;;;;32.03;20.03;;;;;;;-0.64;100.00;96431.78;5081646;28;20181;-56
2022/03/20 05:15:22;;;;;;;34.47;19.53;;;;;;;-0.65;100.00;96442.78;5100248;28;20315;-58
2022/03/20 05:17:47;;;;;;;30.27;17.80;;;;;;;-0.60;100.00;96454.19;5082336;28;20185;-56
2022/03/20 05:20:12;;;;;;;31.33;19.57;;;;;;;-0.55;100.00;96453.25;5082080;28;20181;-57
2022/03/20 05:22:38;;;;;;;31.37;19.17;;;;;;;-0.54;100.00;96452.19;5081921;28;20275;-58
2022/03/20 05:25:12;;;;;;;34.13;20.20;;;;;;;-0.50;100.00;96447.78;5081897;28;20211;-57
2022/03/20 05:27:38;;;;;;;33.83;19.07;;;;;;;-0.46;100.00;96454.91;5099268;28;20185;-64
2022/03/20 05:30:05;;;;;;;30.40;18.27;;;;;;;-0.30;100.00;96449.94;5077771;28;20282;-63
2022/03/20 05:32:32;;;;;;;29.37;18.37;;;;;;;-0.07;100.00;96446.88;5078231;28;20192;-62
2022/03/20 05:34:57;;;;;;;29.13;18.83;;;;;;;0.24;100.00;96457.59;5078281;28;20274;-62
2022/03/20 05:37:23;;;;;;;29.47;17.70;;;;;;;0.60;100.00;96454.66;5078405;28;20205;-63
2022/03/20 05:39:48;;;;;;;29.53;18.53;;;;;;;0.95;100.00;96462.44;5078153;28;20194;-62
2022/03/20 05:42:14;;;;;;;29.87;18.87;;;;;;;1.36;100.00;96456.59;5077938;28;20212;-63
2022/03/20 05:44:40;;;;;;;29.63;18.17;;;;;;;1.78;100.00;96448.44;5078594;28;20187;-59
2022/03/20 05:47:06;;;;;;;27.43;17.93;;;;;;;2.18;100.00;96454.31;5078550;28;20212;-59
2022/03/20 05:49:32;;;;;;;26.90;18.30;;;;;;;2.38;100.00;96467.88;5078236;28;20283;-58
2022/03/20 05:51:59;;;;;;;26.33;17.93;;;;;;;2.72;100.00;96461.50;5078289;28;20190;-57
2022/03/20 05:54:24;;;;;;;29.03;18.70;;;;;;;3.05;100.00;96465.88;5078145;28;20216;-57
2022/03/20 05:59:37;;;;;;;29.20;19.80;;;;;;;3.51;100.00;96481.84;5096175;28;20226;-57
2022/03/20 06:02:03;;;;;;;28.90;18.87;;;;;;;3.78;100.00;96477.03;5077547;28;20232;-53
2022/03/20 06:04:31;;;;;;;27.80;18.47;;;;;;;4.10;100.00;96474.28;5077686;28;20279;-57
2022/03/20 06:06:58;;;;;;;27.00;18.67;;;;;;;4.52;100.00;96477.59;5078141;28;20187;-54
2022/03/20 06:09:23;;;;;;;28.97;19.57;;;;;;;5.10;100.00;96471.69;5077782;28;20186;-55
2022/03/20 06:11:49;;;;;;;26.50;18.83;;;;;;;5.40;100.00;96475.69;5078136;28;20193;-52
2022/03/20 06:14:17;;;;;;;28.20;19.00;;;;;;;5.55;100.00;96480.38;5077518;28;20201;-53
2022/03/20 06:16:43;;;;;;;23.37;18.03;;;;;;;6.02;100.00;96478.63;5077669;28;20224;-53
2022/03/20 06:19:09;;;;;;;26.10;18.50;;;;;;;6.86;99.71;96480.75;5078182;28;20207;-54
2022/03/20 06:21:34;;;;;;;27.83;20.07;;;;;;;7.67;91.47;96477.88;5077741;28;20567;-59
2022/03/20 06:24:00;;;;;;;24.97;18.20;;;;;;;8.09;83.61;96489.59;5077856;28;20184;-52
2022/03/20 06:26:25;;;;;;;25.93;19.30;;;;;;;8.39;78.93;96492.50;5077496;28;20206;-52
2022/03/20 06:28:52;;;;;;;25.90;19.37;;;;;;;8.91;75.71;96487.97;5077654;28;20191;-53
2022/03/20 06:31:22;;;;;;;25.57;18.87;;;;;;;9.22;73.21;96493.09;5077522;28;20183;-52
2022/03/20 06:33:47;;;;;;;24.37;19.57;;;;;;;9.88;70.76;96485.03;5095471;28;20279;-53
2022/03/20 06:36:14;;;;;;;27.03;20.97;;;;;;;10.01;67.18;96499.22;5077300;28;20375;-52
2022/03/20 06:38:40;;;;;;;23.77;19.50;;;;;;;10.20;67.04;96492.84;5077728;28;20238;-53
2022/03/20 06:41:07;;;;;;;26.60;20.87;;;;;;;10.36;67.17;96491.47;5076248;28;20555;-57
2022/03/20 06:43:35;;;;;;;25.30;20.33;;;;;;;10.68;64.90;96502.69;5077690;28;20188;-57
2022/03/20 06:46:01;;;;;;;25.23;19.57;;;;;;;10.91;62.32;96486.88;5077232;28;20180;-58
2022/03/20 06:48:27;;;;;;;25.13;19.63;;;;;;;11.37;60.34;96496.22;5077018;28;20184;-58
2022/03/20 06:50:53;;;;;;;28.30;22.90;;;;;;;11.43;58.31;96497.41;5077627;28;20206;-59
2022/03/20 06:53:18;;;;;;;25.20;20.70;;;;;;;11.51;57.51;96496.31;5077231;28;20238;-57
2022/03/20 06:55:45;;;;;;;24.07;20.03;;;;;;;11.18;58.42;96501.97;5077654;28;20219;-59
2022/03/20 06:58:10;;;;;;;23.93;20.57;;;;;;;11.63;57.11;96498.75;5077178;28;20193;-59
2022/03/20 07:00:36;;;;;;;25.33;20.77;;;;;;;11.74;56.16;96505.06;5077174;28;20279;-56
2022/03/20 07:03:03;;;;;;;25.53;21.33;;;;;;;11.43;56.31;96506.41;5076799;28;20212;-57
2022/03/20 07:05:30;;;;;;;24.23;19.67;;;;;;;11.49;55.78;96498.66;5077447;28;20200;-57
2022/03/20 07:07:55;;;;;;;24.10;20.63;;;;;;;12.06;53.98;96506.03;5076938;28;20195;-55
2022/03/20 07:10:22;;;;;;;24.40;20.13;;;;;;;12.58;53.04;96494.44;5077149;28;20188;-57
2022/03/20 07:12:47;;;;;;;23.43;19.73;;;;;;;12.76;50.41;96500.72;5077230;28;20188;-56
2022/03/20 07:15:13;;;;;;;24.00;19.77;;;;;;;12.63;49.20;96499.53;5076728;28;20239;-56
2022/03/20 07:17:38;;;;;;;23.70;20.07;;;;;;;12.41;49.36;96508.84;5076727;28;20184;-64
2022/03/20 07:20:11;;;;;;;25.87;21.40;;;;;;;12.81;49.14;96519.53;5076849;28;20180;-65
2022/03/20 07:22:36;;;;;;;22.53;19.60;;;;;;;13.21;47.77;96510.97;5076638;28;20187;-65
2022/03/20 07:30:31;;;;;;;23.87;19.47;;;;;;;12.63;48.18;96527.72;5095000;28;20192;-65
2022/03/20 07:32:57;;;;;;;25.13;18.97;;;;;;;12.02;50.51;96527.88;5076575;28;20180;-66
2022/03/20 07:35:24;;;;;;;23.10;19.47;;;;;;;12.08;51.53;96526.38;5076440;28;20205;-62
2022/03/20 07:37:49;;;;;;;23.33;19.90;;;;;;;12.53;48.89;96530.44;5076360;28;20661;-62
2022/03/20 07:40:15;;;;;;;22.77;19.37;;;;;;;13.11;48.04;96528.19;5076488;28;20176;-62
2022/03/20 07:42:40;;;;;;;23.03;18.97;;;;;;;13.52;46.11;96526.63;5076248;28;20198;-63
2022/03/20 07:45:06;;;;;;;22.63;18.93;;;;;;;13.56;45.63;96527.41;5076298;28;20184;-63
2022/03/20 07:47:31;;;;;;;22.53;19.03;;;;;;;12.66;46.67;96534.38;5076210;28;20245;-62
2022/03/20 07:49:57;;;;;;;24.10;19.33;;;;;;;13.48;46.24;96520.38;5076540;28;20255;-61
2022/03/20 07:52:22;;;;;;;23.93;19.73;;;;;;;13.53;46.11;96533.69;5075692;28;20192;-65
2022/03/20 07:54:48;;;;;;;24.33;19.50;;;;;;;15.08;42.51;96528.34;5076055;28;20204;-57
2022/03/20 07:57:14;;;;;;;22.67;18.93;;;;;;;15.42;41.36;96526.53;5076504;28;20195;-53
2022/03/20 07:59:39;;;;;;;21.97;19.53;;;;;;;15.24;40.31;96532.16;5076263;28;20192;-53
2022/03/20 08:02:05;;;;;;;23.50;18.63;;;;;;;15.59;40.50;96537.38;5075866;28;20204;-53
2022/03/20 08:04:31;;;;;;;21.67;19.27;;;;;;;15.55;39.44;96536.63;5076023;28;20184;-52
2022/03/20 08:06:56;;;;;;;24.63;21.93;;;;;;;15.60;39.57;96538.97;5076607;28;20226;-54
2022/03/20 08:09:22;;;;;;;21.07;18.87;;;;;;;15.37;40.54;96541.50;5076148;28;20188;-57
2022/03/20 08:11:47;;;;;;;22.63;20.23;;;;;;;13.89;42.89;96543.41;5075927;28;20237;-55
2022/03/20 08:14:13;;;;;;;21.73;19.43;;;;;;;14.74;42.36;96543.88;5075957;28;20197;-60
2022/03/20 08:16:39;;;;;;;22.03;19.67;;;;;;;13.95;43.39;96539.06;5075630;28;20233;-61
2022/03/20 08:19:07;;;;;;;22.03;19.67;;;;;;;14.30;44.26;96535.44;5075824;28;20291;-61
2022/03/20 08:21:35;;;;;;;23.93;19.53;;;;;;;14.40;43.24;96538.19;5076424;28;20237;-60
2022/03/20 08:24:02;;;;;;;24.60;20.07;;;;;;;15.58;41.98;96535.81;5075716;28;20252;-60
2022/03/20 08:26:32;;;;;;;22.20;19.73;;;;;;;15.18;40.79;96539.28;5093490;28;20188;-60
2022/03/20 08:29:01;;;;;;;22.80;19.90;;;;;;;15.77;42.39;96546.25;5076319;28;20218;-58
2022/03/20 08:31:30;;;;;;;22.10;19.23;;;;;;;16.11;39.62;96541.56;5075765;28;20633;-59
2022/03/20 08:33:59;;;;;;;22.30;19.90;;;;;;;15.09;40.85;96543.66;5075937;28;20177;-58
2022/03/20 08:36:24;;;;;;;24.13;21.43;;;;;;;16.36;40.91;96533.78;5075685;28;20212;-59
2022/03/20 08:38:50;;;;;;;23.30;20.77;;;;;;;15.87;39.45;96542.63;5075698;28;20185;-58
2022/03/20 08:41:16;;;;;;;22.33;19.70;;;;;;;17.33;38.35;96549.41;5075775;28;20196;-58
2022/03/20 08:43:41;;;;;;;22.03;19.47;;;;;;;17.67;37.81;96546.53;5075907;28;20226;-59
2022/03/20 08:46:06;;;;;;;22.27;19.97;;;;;;;18.21;35.86;96534.09;5075631;28;20201;-59
2022/03/20 08:48:32;;;;;;;21.70;19.40;;;;;;;18.10;35.96;96536.28;5075499;28;20192;-56
2022/03/20 08:50:57;;;;;;;23.40;20.27;;;;;;;18.08;37.12;96536.72;5075493;28;20188;-66
2022/03/20 08:53:23;;;;;;;21.67;19.37;;;;;;;16.64;37.56;96545.72;5075575;28;20192;-64
2022/03/20 08:55:49;;;;;;;20.80;18.57;;;;;;;17.02;37.10;96547.16;5075411;28;20208;-68
2022/03/20 08:58:15;;;;;;;21.93;19.50;;;;;;;17.36;37.07;96536.75;5075264;28;20279;-70
2022/03/20 09:00:41;;;;;;;21.40;19.20;;;;;;;17.66;36.17;96528.41;5075474;28;20227;-65
2022/03/20 09:03:07;;;;;;;21.77;19.47;;;;;;;18.25;35.43;96526.53;5075553;28;20216;-64
2022/03/20 09:05:32;;;;;;;21.47;19.00;;;;;;;18.07;35.62;96531.59;5078849;28;20270;-56
2022/03/20 09:07:58;;;;;;;21.90;19.40;;;;;;;17.46;36.58;96533.88;5078755;28;20279;-62
2022/03/20 09:10:25;;;;;;;20.87;18.70;;;;;;;17.97;35.44;96527.03;5078675;28;20203;-58
2022/03/20 09:12:55;;;;;;;21.30;19.07;;;;;;;18.96;34.73;96532.16;5096444;28;20188;-56
2022/03/20 09:15:25;;;;;;;20.07;17.37;;;;;;;19.12;33.04;96532.16;5078516;28;20687;-57
2022/03/20 09:20:36;;;;;;;20.27;18.20;;;;;;;19.21;33.43;96526.81;5096757;28;20297;-58
2022/03/20 09:23:03;;;;;;;21.40;18.40;;;;;;;18.36;34.21;96535.41;5078458;28;20206;-59
2022/03/20 09:25:28;;;;;;;22.30;20.07;;;;;;;17.90;35.57;96539.03;5078882;28;20634;-70
2022/03/20 09:27:53;;;;;;;21.27;19.07;;;;;;;18.62;34.97;96537.25;5078418;28;20199;-65
2022/03/20 09:30:21;;;;;;;20.57;18.37;;;;;;;19.23;33.74;96527.19;5096297;28;20191;-64
2022/03/20 09:32:46;;;;;;;20.00;17.90;;;;;;;18.17;33.36;96525.09;5078368;28;20219;-62
2022/03/20 09:35:12;;;;;;;20.07;17.87;;;;;;;17.86;34.74;96532.00;5078268;28;20239;-63
2022/03/20 09:37:38;;;;;;;20.03;17.93;;;;;;;17.37;34.74;96532.81;5078231;28;20206;-66
2022/03/20 09:40:05;;;;;;;20.07;18.07;;;;;;;18.06;34.97;96530.06;5078483;28;20189;-66
2022/03/20 09:42:31;;;;;;;19.23;17.23;;;;;;;18.85;33.53;96520.53;5078152;28;20629;-58
2022/03/20 09:44:56;;;;;;;19.40;17.30;;;;;;;18.42;34.30;96525.41;5078278;28;20180;-60
2022/03/20 09:47:23;;;;;;;23.07;19.60;;;;;;;19.13;32.84;96530.97;5077998;28;20214;-63
2022/03/20 09:49:49;;;;;;;22.33;20.00;;;;;;;18.61;34.08;96527.41;5078251;28;20180;-61
2022/03/20 09:52:17;;;;;;;20.27;17.57;;;;;;;18.35;33.62;96531.06;5078565;28;20180;-61
2022/03/20 09:54:42;;;;;;;18.37;16.47;;;;;;;19.06;33.34;96531.13;5077805;28;20295;-64
2022/03/20 09:57:10;;;;;;;19.03;17.03;;;;;;;19.30;32.41;96530.59;5078298;28;20294;-61
2022/03/20 09:59:38;;;;;;;19.90;17.90;;;;;;;18.99;32.11;96540.38;5078423;28;20181;-61
2022/03/20 10:02:11;;;;;;;22.30;20.00;;;;;;;19.60;32.78;96543.34;5078337;28;20240;-69
2022/03/20 10:04:59;;;;;;;20.93;18.77;;;;;;;18.77;32.21;96542.06;5078093;28;20195;-58
2022/03/20 10:07:30;;;;;;;38.30;27.40;;;;;;;19.46;31.96;96541.66;5077850;28;20279;-58
2022/03/20 10:10:31;;;;;;;23.17;20.50;;;;;;;19.10;32.25;96543.69;5077560;28;20192;-58
2022/03/20 10:12:59;;;;;;;19.33;17.20;;;;;;;18.09;32.76;96546.56;5045947;28;20211;-59
2022/03/20 10:15:37;;;;;;;18.57;16.60;;;;;;;17.76;33.68;96544.78;5077560;28;20210;-59
2022/03/20 10:18:20;;;;;;;19.93;17.83;;;;;;;18.24;32.82;96538.75;5078071;28;20279;-60
2022/03/20 10:20:50;;;;;;;18.43;16.30;;;;;;;19.00;32.26;96535.63;5077415;28;20199;-68
2022/03/20 10:23:31;;;;;;;17.33;15.57;;;;;;;17.65;33.17;96548.94;5077858;28;20195;-61
2022/03/20 10:25:57;;;;;;;19.20;16.50;;;;;;;17.69;33.15;96539.38;5077538;28;20192;-61
2022/03/20 10:28:22;;;;;;;19.67;16.13;;;;;;;18.88;32.16;96536.28;5077485;28;20199;-62
2022/03/20 10:30:59;;;;;;;18.90;16.97;;;;;;;19.03;31.76;96527.25;5077452;28;20200;-62
2022/03/20 10:33:24;;;;;;;18.80;16.77;;;;;;;18.06;31.83;96524.53;5077147;28;20188;-65
2022/03/20 10:36:08;;;;;;;17.47;15.67;;;;;;;18.52;31.17;96529.94;5095478;28;20334;-62
2022/03/20 10:38:37;;;;;;;17.10;15.30;;;;;;;18.37;30.63;96534.19;5077609;28;20208;-57
2022/03/20 10:41:27;;;;;;;16.67;13.93;;;;;;;18.22;30.58;96527.38;5077152;28;20645;-59
2022/03/20 10:43:54;;;;;;;16.03;14.33;;;;;;;19.01;29.44;96528.84;5076886;28;20195;-58
2022/03/20 10:46:24;;;;;;;17.70;15.27;;;;;;;17.72;31.92;96526.72;5077191;28;20203;-58
2022/03/20 10:48:52;;;;;;;17.37;14.83;;;;;;;18.43;31.65;96522.19;5077118;28;20181;-58
2022/03/20 10:51:38;;;;;;;16.40;14.50;;;;;;;18.80;30.08;96521.03;5077111;28;20188;-58
2022/03/20 10:54:05;;;;;;;17.27;14.50;;;;;;;18.73;30.38;96529.50;5077407;28;20192;-58
2022/03/20 10:56:31;;;;;;;18.63;15.40;;;;;;;18.87;30.41;96529.97;5077093;28;20208;-62
2022/03/20 10:58:58;;;;;;;17.90;14.50;;;;;;;18.51;30.00;96533.91;5077186;28;20195;-68
2022/03/20 11:01:37;;;;;;;19.13;15.80;;;;;;;18.08;31.28;96538.69;5076994;28;20214;-61
2022/03/20 11:04:08;;;;;;;16.30;14.57;;;;;;;17.89;32.50;96536.69;5077086;28;20172;-62
2022/03/20 11:06:34;;;;;;;18.70;15.63;;;;;;;18.07;32.58;96531.59;5076844;28;20204;-64
2022/03/20 11:09:04;;;;;;;17.90;15.27;;;;;;;17.09;34.13;96558.09;5077289;28;20176;-63
2022/03/20 11:11:32;;;;;;;15.97;13.97;;;;;;;17.18;32.88;96542.56;5076719;28;20253;-62
2022/03/20 11:13:59;;;;;;;17.93;14.43;;;;;;;16.65;33.62;96547.28;5076767;28;20215;-62
2022/03/20 11:16:26;;;;;;;17.03;14.63;;;;;;;16.85;34.23;96546.19;5076725;28;20212;-60
2022/03/20 11:18:53;;;;;;;16.67;14.90;;;;;;;16.81;34.32;96541.91;5076962;28;20237;-56
2022/03/20 11:21:28;;;;;;;16.17;14.17;;;;;;;16.51;33.48;96548.25;5076690;28;20184;-54
2022/03/20 11:23:54;;;;;;;15.43;13.83;;;;;;;15.78;34.66;96539.56;5076748;28;20188;-56
2022/03/20 11:26:25;;;;;;;16.03;14.33;;;;;;;15.92;35.12;96539.41;5075780;28;20177;-55
2022/03/20 11:28:57;;;;;;;15.23;13.63;;;;;;;16.07;33.77;96543.59;5076997;28;20208;-58
2022/03/20 11:31:23;;;;;;;16.73;14.57;;;;;;;15.39;35.41;96530.09;5076902;28;20180;-58
2022/03/20 11:33:50;;;;;;;16.67;14.87;;;;;;;15.21;36.67;96535.72;5076254;28;20185;-58
2022/03/20 11:36:16;;;;;;;17.47;15.20;;;;;;;15.11;37.77;96522.81;5076580;28;20553;-60
2022/03/20 11:38:42;;;;;;;16.60;14.90;;;;;;;14.35;38.65;96518.56;5076791;28;20274;-61
2022/03/20 11:41:16;;;;;;;16.67;14.33;;;;;;;14.06;39.00;96528.06;5076365;28;20181;-64
2022/03/20 11:43:44;;;;;;;19.43;15.30;;;;;;;13.89;39.63;96524.19;5076538;28;20191;-65
2022/03/20 11:46:16;;;;;;;18.13;14.37;;;;;;;13.53;40.60;96521.91;5076879;28;20178;-61